Denver, Colorado
Current Conditions -  °F | °C
As of 2:58 AM on Thursday 18 Dec 2014 (Local Time) from KBKF Reporting Station
Scattered Clouds Scattered Clouds  
Wind Chill: 20°   Ceiling: Unl
Heat Index: 28°   Visibility: 10mi
Dew Point: 28°   Wind: 7mph
Humidity: 99%   Direction: 190°S
Pressure: 29.99"   Gusts: NA
Location:  39.74°N, 104.99°W
Report Text: KBKF 180958Z 19006KT 10SM FEW070 SCT160 M02/M02 A2999 RMK AO2A SLP161 T10241025
Loading
Personal Weather Stations






























Interactive Weather Map New forecast layout! Learn more

10-Day Weather Forecast

Advertisements
Track Severe Weather on mobile